sensor_id;sensor_type;location;lat;lon;timestamp;P1;durP1;ratioP1;P2;durP2;ratioP2
84982;SDS011;75295;45.426;9.696;2024-02-14T00:00:03;37.97;;;24.48;;
84982;SDS011;75295;45.426;9.696;2024-02-14T00:02:35;38.17;;;24.67;;
84982;SDS011;75295;45.426;9.696;2024-02-14T00:05:02;40.83;;;25.70;;
84982;SDS011;75295;45.426;9.696;2024-02-14T00:07:35;37.78;;;24.67;;
84982;SDS011;75295;45.426;9.696;2024-02-14T00:10:18;39.80;;;24.05;;
84982;SDS011;75295;45.426;9.696;2024-02-14T00:13:08;39.15;;;25.15;;
84982;SDS011;75295;45.426;9.696;2024-02-14T00:15:48;45.38;;;27.10;;
84982;SDS011;75295;45.426;9.696;2024-02-14T00:18:47;33.85;;;24.35;;
84982;SDS011;75295;45.426;9.696;2024-02-14T00:21:19;36.92;;;24.35;;
84982;SDS011;75295;45.426;9.696;2024-02-14T00:23:48;36.92;;;24.80;;
84982;SDS011;75295;45.426;9.696;2024-02-14T00:26:19;38.63;;;26.00;;
84982;SDS011;75295;45.426;9.696;2024-02-14T00:28:46;38.03;;;25.73;;
84982;SDS011;75295;45.426;9.696;2024-02-14T00:31:13;38.90;;;25.83;;
84982;SDS011;75295;45.426;9.696;2024-02-14T00:34:00;34.63;;;23.52;;
84982;SDS011;75295;45.426;9.696;2024-02-14T00:36:34;42.47;;;25.73;;
84982;SDS011;75295;45.426;9.696;2024-02-14T00:39:03;42.35;;;26.85;;
84982;SDS011;75295;45.426;9.696;2024-02-14T00:41:32;34.95;;;24.80;;
84982;SDS011;75295;45.426;9.696;2024-02-14T00:44:01;37.78;;;25.70;;
84982;SDS011;75295;45.426;9.696;2024-02-14T00:46:33;39.88;;;26.10;;
84982;SDS011;75295;45.426;9.696;2024-02-14T00:49:02;38.72;;;24.65;;
84982;SDS011;75295;45.426;9.696;2024-02-14T00:51:48;36.63;;;24.40;;
84982;SDS011;75295;45.426;9.696;2024-02-14T00:54:26;35.80;;;24.17;;
84982;SDS011;75295;45.426;9.696;2024-02-14T00:56:57;35.50;;;24.10;;
84982;SDS011;75295;45.426;9.696;2024-02-14T00:59:24;35.40;;;24.00;;
84982;SDS011;75295;45.426;9.696;2024-02-14T01:01:53;31.35;;;22.15;;
84982;SDS011;75295;45.426;9.696;2024-02-14T01:04:23;37.38;;;24.52;;
84982;SDS011;75295;45.426;9.696;2024-02-14T01:06:50;51.90;;;25.20;;
84982;SDS011;75295;45.426;9.696;2024-02-14T01:09:30;33.05;;;22.58;;
84982;SDS011;75295;45.426;9.696;2024-02-14T01:11:59;34.35;;;23.25;;
84982;SDS011;75295;45.426;9.696;2024-02-14T01:14:28;39.80;;;24.63;;
84982;SDS011;75295;45.426;9.696;2024-02-14T01:16:59;35.05;;;22.80;;
84982;SDS011;75295;45.426;9.696;2024-02-14T01:19:28;32.45;;;22.67;;
84982;SDS011;75295;45.426;9.696;2024-02-14T01:21:55;33.70;;;22.58;;
84982;SDS011;75295;45.426;9.696;2024-02-14T01:24:27;36.95;;;22.52;;
84982;SDS011;75295;45.426;9.696;2024-02-14T01:26:56;34.15;;;22.88;;
84982;SDS011;75295;45.426;9.696;2024-02-14T01:29:25;31.45;;;22.65;;
84982;SDS011;75295;45.426;9.696;2024-02-14T01:31:55;32.85;;;22.27;;
84982;SDS011;75295;45.426;9.696;2024-02-14T01:34:25;33.60;;;21.52;;
84982;SDS011;75295;45.426;9.696;2024-02-14T01:36:54;34.88;;;22.90;;
84982;SDS011;75295;45.426;9.696;2024-02-14T01:39:23;33.83;;;20.92;;
84982;SDS011;75295;45.426;9.696;2024-02-14T01:41:52;32.97;;;21.08;;
84982;SDS011;75295;45.426;9.696;2024-02-14T01:44:19;35.70;;;23.60;;
84982;SDS011;75295;45.426;9.696;2024-02-14T01:46:46;33.58;;;21.58;;
84982;SDS011;75295;45.426;9.696;2024-02-14T01:49:13;32.78;;;22.98;;
84982;SDS011;75295;45.426;9.696;2024-02-14T01:51:42;28.98;;;21.35;;
84982;SDS011;75295;45.426;9.696;2024-02-14T01:54:11;33.85;;;21.15;;
84982;SDS011;75295;45.426;9.696;2024-02-14T01:56:42;29.02;;;20.23;;
84982;SDS011;75295;45.426;9.696;2024-02-14T01:59:10;30.30;;;20.17;;
84982;SDS011;75295;45.426;9.696;2024-02-14T02:01:37;34.55;;;23.30;;
84982;SDS011;75295;45.426;9.696;2024-02-14T02:04:04;33.13;;;21.98;;
84982;SDS011;75295;45.426;9.696;2024-02-14T02:06:31;36.88;;;22.42;;
84982;SDS011;75295;45.426;9.696;2024-02-14T02:09:01;33.45;;;21.55;;
84982;SDS011;75295;45.426;9.696;2024-02-14T02:11:29;29.92;;;21.23;;
84982;SDS011;75295;45.426;9.696;2024-02-14T02:14:16;28.48;;;20.67;;
84982;SDS011;75295;45.426;9.696;2024-02-14T02:17:03;30.75;;;20.75;;
84982;SDS011;75295;45.426;9.696;2024-02-14T02:19:55;30.30;;;21.35;;
84982;SDS011;75295;45.426;9.696;2024-02-14T02:22:35;28.00;;;18.90;;
84982;SDS011;75295;45.426;9.696;2024-02-14T02:25:22;27.85;;;18.13;;
84982;SDS011;75295;45.426;9.696;2024-02-14T02:28:04;30.25;;;19.80;;
84982;SDS011;75295;45.426;9.696;2024-02-14T02:30:36;27.45;;;18.33;;
84982;SDS011;75295;45.426;9.696;2024-02-14T02:33:04;28.90;;;19.35;;
84982;SDS011;75295;45.426;9.696;2024-02-14T02:35:33;29.30;;;19.45;;
84982;SDS011;75295;45.426;9.696;2024-02-14T02:38:12;25.35;;;17.33;;
84982;SDS011;75295;45.426;9.696;2024-02-14T02:40:58;26.42;;;17.80;;
84982;SDS011;75295;45.426;9.696;2024-02-14T02:43:46;22.80;;;16.05;;
84982;SDS011;75295;45.426;9.696;2024-02-14T02:46:48;22.15;;;15.20;;
84982;SDS011;75295;45.426;9.696;2024-02-14T02:49:36;26.52;;;16.80;;
84982;SDS011;75295;45.426;9.696;2024-02-14T02:52:24;24.63;;;16.15;;
84982;SDS011;75295;45.426;9.696;2024-02-14T02:55:11;23.08;;;16.15;;
84982;SDS011;75295;45.426;9.696;2024-02-14T02:57:46;25.70;;;16.75;;
84982;SDS011;75295;45.426;9.696;2024-02-14T03:00:14;24.05;;;17.15;;
84982;SDS011;75295;45.426;9.696;2024-02-14T03:02:48;23.17;;;15.95;;
84982;SDS011;75295;45.426;9.696;2024-02-14T03:05:37;19.65;;;14.57;;
84982;SDS011;75295;45.426;9.696;2024-02-14T03:08:22;23.35;;;16.02;;
84982;SDS011;75295;45.426;9.696;2024-02-14T03:11:11;19.98;;;14.70;;
84982;SDS011;75295;45.426;9.696;2024-02-14T03:13:58;24.60;;;14.68;;
84982;SDS011;75295;45.426;9.696;2024-02-14T03:16:45;23.08;;;14.95;;
84982;SDS011;75295;45.426;9.696;2024-02-14T03:19:12;21.02;;;13.45;;
84982;SDS011;75295;45.426;9.696;2024-02-14T03:21:39;22.90;;;15.05;;
84982;SDS011;75295;45.426;9.696;2024-02-14T03:24:05;20.35;;;13.68;;
84982;SDS011;75295;45.426;9.696;2024-02-14T03:26:36;20.38;;;13.02;;
84982;SDS011;75295;45.426;9.696;2024-02-14T03:29:04;19.13;;;13.68;;
84982;SDS011;75295;45.426;9.696;2024-02-14T03:31:32;19.52;;;14.15;;
84982;SDS011;75295;45.426;9.696;2024-02-14T03:33:59;19.95;;;12.45;;
84982;SDS011;75295;45.426;9.696;2024-02-14T03:36:25;19.60;;;12.32;;
84982;SDS011;75295;45.426;9.696;2024-02-14T03:38:56;22.08;;;12.98;;
84982;SDS011;75295;45.426;9.696;2024-02-14T03:41:23;19.85;;;12.65;;
84982;SDS011;75295;45.426;9.696;2024-02-14T03:43:50;19.85;;;11.82;;
84982;SDS011;75295;45.426;9.696;2024-02-14T03:46:18;18.88;;;11.43;;
84982;SDS011;75295;45.426;9.696;2024-02-14T03:48:47;19.17;;;12.13;;
84982;SDS011;75295;45.426;9.696;2024-02-14T03:51:14;17.02;;;11.27;;
84982;SDS011;75295;45.426;9.696;2024-02-14T03:53:41;18.25;;;11.07;;
84982;SDS011;75295;45.426;9.696;2024-02-14T03:56:08;17.48;;;10.13;;
84982;SDS011;75295;45.426;9.696;2024-02-14T03:58:35;19.42;;;11.95;;
84982;SDS011;75295;45.426;9.696;2024-02-14T04:01:04;17.05;;;10.77;;
84982;SDS011;75295;45.426;9.696;2024-02-14T04:03:31;16.65;;;10.38;;
84982;SDS011;75295;45.426;9.696;2024-02-14T04:05:58;15.38;;;10.40;;
84982;SDS011;75295;45.426;9.696;2024-02-14T04:08:27;18.00;;;11.52;;
84982;SDS011;75295;45.426;9.696;2024-02-14T04:10:55;17.75;;;11.27;;
84982;SDS011;75295;45.426;9.696;2024-02-14T04:13:22;18.00;;;10.68;;
84982;SDS011;75295;45.426;9.696;2024-02-14T04:15:49;17.08;;;10.80;;
84982;SDS011;75295;45.426;9.696;2024-02-14T04:18:19;16.23;;;11.43;;
84982;SDS011;75295;45.426;9.696;2024-02-14T04:20:46;24.75;;;11.93;;
84982;SDS011;75295;45.426;9.696;2024-02-14T04:23:14;17.55;;;11.43;;
84982;SDS011;75295;45.426;9.696;2024-02-14T04:25:41;14.98;;;9.93;;
84982;SDS011;75295;45.426;9.696;2024-02-14T04:28:08;17.27;;;9.73;;
84982;SDS011;75295;45.426;9.696;2024-02-14T04:30:37;19.92;;;11.30;;
84982;SDS011;75295;45.426;9.696;2024-02-14T04:33:10;17.02;;;10.30;;
84982;SDS011;75295;45.426;9.696;2024-02-14T04:35:37;16.40;;;10.75;;
84982;SDS011;75295;45.426;9.696;2024-02-14T04:38:04;16.85;;;11.40;;
84982;SDS011;75295;45.426;9.696;2024-02-14T04:40:34;17.80;;;10.88;;
84982;SDS011;75295;45.426;9.696;2024-02-14T04:43:01;16.60;;;10.98;;
84982;SDS011;75295;45.426;9.696;2024-02-14T04:45:29;15.82;;;10.43;;
84982;SDS011;75295;45.426;9.696;2024-02-14T04:48:00;18.60;;;11.52;;
84982;SDS011;75295;45.426;9.696;2024-02-14T04:50:27;17.05;;;10.77;;
84982;SDS011;75295;45.426;9.696;2024-02-14T04:52:56;17.83;;;11.07;;
84982;SDS011;75295;45.426;9.696;2024-02-14T04:55:23;19.98;;;13.35;;
84982;SDS011;75295;45.426;9.696;2024-02-14T04:57:50;18.90;;;12.70;;
84982;SDS011;75295;45.426;9.696;2024-02-14T05:00:17;21.50;;;13.13;;
84982;SDS011;75295;45.426;9.696;2024-02-14T05:02:49;19.15;;;12.57;;
84982;SDS011;75295;45.426;9.696;2024-02-14T05:05:17;16.88;;;11.52;;
84982;SDS011;75295;45.426;9.696;2024-02-14T05:07:53;20.85;;;11.57;;
84982;SDS011;75295;45.426;9.696;2024-02-14T05:10:21;17.58;;;10.82;;
84982;SDS011;75295;45.426;9.696;2024-02-14T05:12:48;24.52;;;12.55;;
84982;SDS011;75295;45.426;9.696;2024-02-14T05:15:15;18.02;;;11.48;;
84982;SDS011;75295;45.426;9.696;2024-02-14T05:17:42;20.42;;;11.55;;
84982;SDS011;75295;45.426;9.696;2024-02-14T05:20:10;16.83;;;12.02;;
84982;SDS011;75295;45.426;9.696;2024-02-14T05:22:38;18.52;;;11.70;;
84982;SDS011;75295;45.426;9.696;2024-02-14T05:25:05;21.67;;;11.00;;
84982;SDS011;75295;45.426;9.696;2024-02-14T05:27:49;19.90;;;10.95;;
84982;SDS011;75295;45.426;9.696;2024-02-14T05:30:16;21.50;;;12.15;;
84982;SDS011;75295;45.426;9.696;2024-02-14T05:32:49;17.67;;;9.95;;
84982;SDS011;75295;45.426;9.696;2024-02-14T05:35:18;16.55;;;11.65;;
84982;SDS011;75295;45.426;9.696;2024-02-14T05:38:07;16.95;;;11.65;;
84982;SDS011;75295;45.426;9.696;2024-02-14T05:40:34;20.13;;;13.43;;
84982;SDS011;75295;45.426;9.696;2024-02-14T05:43:05;16.85;;;11.20;;
84982;SDS011;75295;45.426;9.696;2024-02-14T05:45:33;20.35;;;11.32;;
84982;SDS011;75295;45.426;9.696;2024-02-14T05:48:00;19.65;;;11.60;;
84982;SDS011;75295;45.426;9.696;2024-02-14T05:50:27;20.23;;;11.70;;
84982;SDS011;75295;45.426;9.696;2024-02-14T05:52:54;19.42;;;11.00;;
84982;SDS011;75295;45.426;9.696;2024-02-14T05:55:24;16.10;;;10.13;;
84982;SDS011;75295;45.426;9.696;2024-02-14T05:57:52;17.40;;;11.13;;
84982;SDS011;75295;45.426;9.696;2024-02-14T06:00:19;18.48;;;10.10;;
84982;SDS011;75295;45.426;9.696;2024-02-14T06:02:47;14.98;;;9.23;;
84982;SDS011;75295;45.426;9.696;2024-02-14T06:05:14;17.55;;;10.10;;
84982;SDS011;75295;45.426;9.696;2024-02-14T06:07:41;15.15;;;10.38;;
84982;SDS011;75295;45.426;9.696;2024-02-14T06:10:11;20.13;;;11.93;;
84982;SDS011;75295;45.426;9.696;2024-02-14T06:12:38;16.58;;;11.23;;
84982;SDS011;75295;45.426;9.696;2024-02-14T06:15:11;17.65;;;10.25;;
84982;SDS011;75295;45.426;9.696;2024-02-14T06:17:40;19.38;;;11.30;;
84982;SDS011;75295;45.426;9.696;2024-02-14T06:20:11;21.55;;;12.15;;
84982;SDS011;75295;45.426;9.696;2024-02-14T06:22:39;19.08;;;10.38;;
84982;SDS011;75295;45.426;9.696;2024-02-14T06:25:06;21.17;;;10.70;;
84982;SDS011;75295;45.426;9.696;2024-02-14T06:27:56;18.77;;;10.77;;
84982;SDS011;75295;45.426;9.696;2024-02-14T06:30:23;21.80;;;11.57;;
84982;SDS011;75295;45.426;9.696;2024-02-14T06:32:52;21.95;;;13.05;;
84982;SDS011;75295;45.426;9.696;2024-02-14T06:35:21;20.23;;;14.35;;
84982;SDS011;75295;45.426;9.696;2024-02-14T06:37:50;23.10;;;14.88;;
84982;SDS011;75295;45.426;9.696;2024-02-14T06:40:20;21.08;;;12.25;;
84982;SDS011;75295;45.426;9.696;2024-02-14T06:42:48;18.83;;;11.32;;
84982;SDS011;75295;45.426;9.696;2024-02-14T06:45:20;21.15;;;13.30;;
84982;SDS011;75295;45.426;9.696;2024-02-14T06:48:00;21.55;;;13.20;;
84982;SDS011;75295;45.426;9.696;2024-02-14T06:50:27;21.25;;;13.13;;
84982;SDS011;75295;45.426;9.696;2024-02-14T06:52:55;26.33;;;15.70;;
84982;SDS011;75295;45.426;9.696;2024-02-14T06:55:25;20.70;;;14.32;;
84982;SDS011;75295;45.426;9.696;2024-02-14T06:57:54;22.50;;;13.65;;
84982;SDS011;75295;45.426;9.696;2024-02-14T07:00:23;26.13;;;13.25;;
84982;SDS011;75295;45.426;9.696;2024-02-14T07:02:50;22.80;;;13.68;;
84982;SDS011;75295;45.426;9.696;2024-02-14T07:05:17;28.10;;;13.30;;
84982;SDS011;75295;45.426;9.696;2024-02-14T07:07:44;19.23;;;10.73;;
84982;SDS011;75295;45.426;9.696;2024-02-14T07:10:11;22.52;;;13.20;;
84982;SDS011;75295;45.426;9.696;2024-02-14T07:12:38;23.67;;;11.02;;
84982;SDS011;75295;45.426;9.696;2024-02-14T07:15:06;20.35;;;11.23;;
84982;SDS011;75295;45.426;9.696;2024-02-14T07:17:34;21.10;;;10.55;;
84982;SDS011;75295;45.426;9.696;2024-02-14T07:20:01;23.48;;;11.98;;
84982;SDS011;75295;45.426;9.696;2024-02-14T07:22:31;21.67;;;10.63;;
84982;SDS011;75295;45.426;9.696;2024-02-14T07:24:58;18.20;;;10.48;;
84982;SDS011;75295;45.426;9.696;2024-02-14T07:27:25;17.83;;;10.10;;
84982;SDS011;75295;45.426;9.696;2024-02-14T07:29:53;26.90;;;14.70;;
84982;SDS011;75295;45.426;9.696;2024-02-14T07:32:19;26.00;;;11.20;;
84982;SDS011;75295;45.426;9.696;2024-02-14T07:34:46;21.05;;;10.73;;
84982;SDS011;75295;45.426;9.696;2024-02-14T07:37:13;19.50;;;10.90;;
84982;SDS011;75295;45.426;9.696;2024-02-14T07:39:45;19.25;;;11.75;;
84982;SDS011;75295;45.426;9.696;2024-02-14T07:42:14;22.85;;;11.95;;
84982;SDS011;75295;45.426;9.696;2024-02-14T07:44:40;21.70;;;13.18;;
84982;SDS011;75295;45.426;9.696;2024-02-14T07:47:08;21.73;;;11.77;;
84982;SDS011;75295;45.426;9.696;2024-02-14T07:49:36;25.58;;;12.68;;
84982;SDS011;75295;45.426;9.696;2024-02-14T07:52:05;23.67;;;11.88;;
84982;SDS011;75295;45.426;9.696;2024-02-14T07:54:33;22.88;;;12.45;;
84982;SDS011;75295;45.426;9.696;2024-02-14T07:57:00;29.45;;;15.07;;
84982;SDS011;75295;45.426;9.696;2024-02-14T07:59:27;28.05;;;15.73;;
84982;SDS011;75295;45.426;9.696;2024-02-14T08:01:54;21.85;;;13.88;;
84982;SDS011;75295;45.426;9.696;2024-02-14T08:04:21;21.98;;;13.60;;
84982;SDS011;75295;45.426;9.696;2024-02-14T08:06:47;25.50;;;15.10;;
84982;SDS011;75295;45.426;9.696;2024-02-14T08:09:17;24.08;;;13.95;;
84982;SDS011;75295;45.426;9.696;2024-02-14T08:11:44;21.17;;;13.25;;
84982;SDS011;75295;45.426;9.696;2024-02-14T08:14:10;24.45;;;13.98;;
84982;SDS011;75295;45.426;9.696;2024-02-14T08:16:38;25.67;;;13.60;;
84982;SDS011;75295;45.426;9.696;2024-02-14T08:19:05;22.63;;;12.48;;
84982;SDS011;75295;45.426;9.696;2024-02-14T08:21:32;20.75;;;12.65;;
84982;SDS011;75295;45.426;9.696;2024-02-14T08:23:58;22.05;;;12.18;;
84982;SDS011;75295;45.426;9.696;2024-02-14T08:26:25;22.35;;;12.30;;
84982;SDS011;75295;45.426;9.696;2024-02-14T08:28:52;20.65;;;11.98;;
84982;SDS011;75295;45.426;9.696;2024-02-14T08:31:19;23.17;;;12.45;;
84982;SDS011;75295;45.426;9.696;2024-02-14T08:33:46;19.15;;;12.23;;
84982;SDS011;75295;45.426;9.696;2024-02-14T08:36:13;17.50;;;11.75;;
84982;SDS011;75295;45.426;9.696;2024-02-14T08:38:40;24.08;;;13.80;;
84982;SDS011;75295;45.426;9.696;2024-02-14T08:41:07;22.17;;;13.95;;
84982;SDS011;75295;45.426;9.696;2024-02-14T08:43:34;23.40;;;14.15;;
84982;SDS011;75295;45.426;9.696;2024-02-14T08:46:02;23.23;;;13.85;;
84982;SDS011;75295;45.426;9.696;2024-02-14T08:48:29;21.00;;;12.63;;
84982;SDS011;75295;45.426;9.696;2024-02-14T08:51:00;26.92;;;13.13;;
84982;SDS011;75295;45.426;9.696;2024-02-14T08:53:27;20.45;;;12.85;;
84982;SDS011;75295;45.426;9.696;2024-02-14T08:55:54;23.83;;;12.80;;
84982;SDS011;75295;45.426;9.696;2024-02-14T08:58:21;23.90;;;14.38;;
84982;SDS011;75295;45.426;9.696;2024-02-14T09:00:48;25.45;;;14.40;;
84982;SDS011;75295;45.426;9.696;2024-02-14T09:03:14;21.25;;;12.95;;
84982;SDS011;75295;45.426;9.696;2024-02-14T09:05:42;23.05;;;14.40;;
84982;SDS011;75295;45.426;9.696;2024-02-14T09:08:13;22.92;;;13.10;;
84982;SDS011;75295;45.426;9.696;2024-02-14T09:10:40;21.77;;;13.57;;
84982;SDS011;75295;45.426;9.696;2024-02-14T09:13:06;19.05;;;11.45;;
84982;SDS011;75295;45.426;9.696;2024-02-14T09:15:33;20.30;;;11.63;;
84982;SDS011;75295;45.426;9.696;2024-02-14T09:18:01;24.33;;;12.95;;
84982;SDS011;75295;45.426;9.696;2024-02-14T09:20:29;17.40;;;11.95;;
84982;SDS011;75295;45.426;9.696;2024-02-14T09:22:56;20.65;;;12.80;;
84982;SDS011;75295;45.426;9.696;2024-02-14T09:25:24;22.13;;;12.30;;
84982;SDS011;75295;45.426;9.696;2024-02-14T09:27:51;18.05;;;11.93;;
84982;SDS011;75295;45.426;9.696;2024-02-14T09:30:19;20.08;;;13.63;;
84982;SDS011;75295;45.426;9.696;2024-02-14T09:32:46;17.08;;;11.70;;
84982;SDS011;75295;45.426;9.696;2024-02-14T09:35:14;16.73;;;12.90;;
84982;SDS011;75295;45.426;9.696;2024-02-14T09:37:41;21.33;;;12.60;;
84982;SDS011;75295;45.426;9.696;2024-02-14T09:40:08;26.20;;;14.32;;
84982;SDS011;75295;45.426;9.696;2024-02-14T09:42:42;24.23;;;16.55;;
84982;SDS011;75295;45.426;9.696;2024-02-14T09:45:13;26.77;;;17.73;;
84982;SDS011;75295;45.426;9.696;2024-02-14T09:47:41;25.00;;;18.13;;
84982;SDS011;75295;45.426;9.696;2024-02-14T09:50:09;26.67;;;18.60;;
84982;SDS011;75295;45.426;9.696;2024-02-14T09:52:38;32.97;;;21.60;;
84982;SDS011;75295;45.426;9.696;2024-02-14T09:55:09;30.67;;;21.98;;
84982;SDS011;75295;45.426;9.696;2024-02-14T09:57:37;32.15;;;20.52;;
84982;SDS011;75295;45.426;9.696;2024-02-14T10:00:11;28.52;;;19.92;;
84982;SDS011;75295;45.426;9.696;2024-02-14T10:02:42;24.92;;;17.83;;
84982;SDS011;75295;45.426;9.696;2024-02-14T10:05:09;30.95;;;20.33;;
84982;SDS011;75295;45.426;9.696;2024-02-14T10:07:43;26.63;;;17.85;;
84982;SDS011;75295;45.426;9.696;2024-02-14T10:10:12;23.00;;;18.10;;
84982;SDS011;75295;45.426;9.696;2024-02-14T10:12:41;30.48;;;19.83;;
84982;SDS011;75295;45.426;9.696;2024-02-14T10:15:09;31.02;;;18.70;;
84982;SDS011;75295;45.426;9.696;2024-02-14T10:17:38;36.65;;;20.02;;
84982;SDS011;75295;45.426;9.696;2024-02-14T10:20:09;24.77;;;17.25;;
84982;SDS011;75295;45.426;9.696;2024-02-14T10:22:42;24.05;;;17.88;;
84982;SDS011;75295;45.426;9.696;2024-02-14T10:25:10;23.65;;;17.50;;
84982;SDS011;75295;45.426;9.696;2024-02-14T10:27:38;23.35;;;15.85;;
84982;SDS011;75295;45.426;9.696;2024-02-14T10:30:05;23.80;;;16.77;;
84982;SDS011;75295;45.426;9.696;2024-02-14T10:32:36;29.73;;;17.42;;
84982;SDS011;75295;45.426;9.696;2024-02-14T10:35:04;23.13;;;16.42;;
84982;SDS011;75295;45.426;9.696;2024-02-14T10:37:38;25.55;;;18.73;;
84982;SDS011;75295;45.426;9.696;2024-02-14T10:40:06;24.30;;;17.50;;
84982;SDS011;75295;45.426;9.696;2024-02-14T10:42:34;23.50;;;15.80;;
84982;SDS011;75295;45.426;9.696;2024-02-14T10:45:02;23.63;;;16.15;;
84982;SDS011;75295;45.426;9.696;2024-02-14T10:47:36;24.38;;;16.95;;
84982;SDS011;75295;45.426;9.696;2024-02-14T10:50:10;26.33;;;17.67;;
84982;SDS011;75295;45.426;9.696;2024-02-14T10:52:40;25.95;;;18.30;;
84982;SDS011;75295;45.426;9.696;2024-02-14T10:55:09;24.80;;;17.05;;
84982;SDS011;75295;45.426;9.696;2024-02-14T10:57:38;25.02;;;16.73;;
84982;SDS011;75295;45.426;9.696;2024-02-14T11:00:06;24.73;;;18.23;;
84982;SDS011;75295;45.426;9.696;2024-02-14T11:02:36;29.70;;;20.02;;
84982;SDS011;75295;45.426;9.696;2024-02-14T11:05:05;29.52;;;17.65;;
84982;SDS011;75295;45.426;9.696;2024-02-14T11:07:43;21.98;;;16.20;;
84982;SDS011;75295;45.426;9.696;2024-02-14T11:10:16;21.33;;;16.08;;
84982;SDS011;75295;45.426;9.696;2024-02-14T11:12:46;23.15;;;17.00;;
84982;SDS011;75295;45.426;9.696;2024-02-14T11:15:22;21.80;;;16.55;;
84982;SDS011;75295;45.426;9.696;2024-02-14T11:18:03;24.92;;;15.63;;
84982;SDS011;75295;45.426;9.696;2024-02-14T11:20:32;24.02;;;16.55;;
84982;SDS011;75295;45.426;9.696;2024-02-14T11:23:02;22.17;;;15.63;;
84982;SDS011;75295;45.426;9.696;2024-02-14T11:25:32;27.58;;;16.85;;
84982;SDS011;75295;45.426;9.696;2024-02-14T11:28:00;24.23;;;16.55;;
84982;SDS011;75295;45.426;9.696;2024-02-14T11:30:39;22.52;;;16.33;;
84982;SDS011;75295;45.426;9.696;2024-02-14T11:35:42;26.17;;;16.65;;
84982;SDS011;75295;45.426;9.696;2024-02-14T11:38:11;24.33;;;16.80;;
84982;SDS011;75295;45.426;9.696;2024-02-14T11:40:38;24.45;;;17.08;;
84982;SDS011;75295;45.426;9.696;2024-02-14T11:43:10;23.20;;;16.35;;
84982;SDS011;75295;45.426;9.696;2024-02-14T11:45:44;25.30;;;16.85;;
84982;SDS011;75295;45.426;9.696;2024-02-14T11:48:12;24.83;;;16.95;;
84982;SDS011;75295;45.426;9.696;2024-02-14T11:50:43;24.15;;;16.17;;
84982;SDS011;75295;45.426;9.696;2024-02-14T11:53:12;23.30;;;16.60;;
84982;SDS011;75295;45.426;9.696;2024-02-14T11:55:43;26.35;;;18.02;;
84982;SDS011;75295;45.426;9.696;2024-02-14T11:58:10;27.75;;;17.80;;
84982;SDS011;75295;45.426;9.696;2024-02-14T12:00:42;24.23;;;16.60;;
84982;SDS011;75295;45.426;9.696;2024-02-14T12:03:11;25.58;;;17.55;;
84982;SDS011;75295;45.426;9.696;2024-02-14T12:05:43;23.85;;;17.23;;
84982;SDS011;75295;45.426;9.696;2024-02-14T12:08:14;26.50;;;15.90;;
84982;SDS011;75295;45.426;9.696;2024-02-14T12:10:45;24.67;;;15.90;;
84982;SDS011;75295;45.426;9.696;2024-02-14T12:13:15;21.92;;;15.30;;
84982;SDS011;75295;45.426;9.696;2024-02-14T12:15:47;20.88;;;15.10;;
84982;SDS011;75295;45.426;9.696;2024-02-14T12:18:17;22.33;;;15.85;;
84982;SDS011;75295;45.426;9.696;2024-02-14T12:20:46;21.17;;;15.50;;
84982;SDS011;75295;45.426;9.696;2024-02-14T12:23:17;22.70;;;15.15;;
84982;SDS011;75295;45.426;9.696;2024-02-14T12:25:45;21.80;;;14.75;;
84982;SDS011;75295;45.426;9.696;2024-02-14T12:28:17;19.63;;;14.60;;
84982;SDS011;75295;45.426;9.696;2024-02-14T12:30:48;20.05;;;15.25;;
84982;SDS011;75295;45.426;9.696;2024-02-14T12:33:27;22.00;;;16.13;;
84982;SDS011;75295;45.426;9.696;2024-02-14T12:35:55;21.73;;;16.00;;
84982;SDS011;75295;45.426;9.696;2024-02-14T12:38:23;20.80;;;14.88;;
84982;SDS011;75295;45.426;9.696;2024-02-14T12:40:50;22.90;;;16.63;;
84982;SDS011;75295;45.426;9.696;2024-02-14T12:43:20;20.42;;;15.07;;
84982;SDS011;75295;45.426;9.696;2024-02-14T12:45:47;23.83;;;16.73;;
84982;SDS011;75295;45.426;9.696;2024-02-14T12:48:21;24.90;;;16.73;;
84982;SDS011;75295;45.426;9.696;2024-02-14T12:50:52;22.33;;;15.45;;
84982;SDS011;75295;45.426;9.696;2024-02-14T12:53:22;26.27;;;16.02;;
84982;SDS011;75295;45.426;9.696;2024-02-14T12:55:50;22.00;;;16.85;;
84982;SDS011;75295;45.426;9.696;2024-02-14T12:58:17;26.15;;;18.02;;
84982;SDS011;75295;45.426;9.696;2024-02-14T13:00:44;24.85;;;16.25;;
84982;SDS011;75295;45.426;9.696;2024-02-14T13:03:11;24.08;;;17.83;;
84982;SDS011;75295;45.426;9.696;2024-02-14T13:05:39;24.10;;;17.67;;
84982;SDS011;75295;45.426;9.696;2024-02-14T13:08:06;26.90;;;17.15;;
84982;SDS011;75295;45.426;9.696;2024-02-14T13:10:37;22.52;;;17.08;;
84982;SDS011;75295;45.426;9.696;2024-02-14T13:13:05;26.65;;;17.77;;
84982;SDS011;75295;45.426;9.696;2024-02-14T13:15:31;24.25;;;16.55;;
84982;SDS011;75295;45.426;9.696;2024-02-14T13:17:58;25.13;;;17.25;;
84982;SDS011;75295;45.426;9.696;2024-02-14T13:20:26;22.15;;;17.23;;
84982;SDS011;75295;45.426;9.696;2024-02-14T13:22:54;23.98;;;17.23;;
84982;SDS011;75295;45.426;9.696;2024-02-14T13:25:22;26.38;;;18.25;;
84982;SDS011;75295;45.426;9.696;2024-02-14T13:27:50;26.75;;;19.90;;
84982;SDS011;75295;45.426;9.696;2024-02-14T13:30:17;25.58;;;18.77;;
84982;SDS011;75295;45.426;9.696;2024-02-14T13:32:44;26.10;;;19.73;;
84982;SDS011;75295;45.426;9.696;2024-02-14T13:35:12;26.10;;;18.15;;
84982;SDS011;75295;45.426;9.696;2024-02-14T13:37:39;28.40;;;19.63;;
84982;SDS011;75295;45.426;9.696;2024-02-14T13:40:06;29.92;;;20.02;;
84982;SDS011;75295;45.426;9.696;2024-02-14T13:42:36;25.17;;;18.95;;
84982;SDS011;75295;45.426;9.696;2024-02-14T13:45:07;28.75;;;19.80;;
84982;SDS011;75295;45.426;9.696;2024-02-14T13:47:38;28.92;;;21.00;;
84982;SDS011;75295;45.426;9.696;2024-02-14T13:50:08;25.40;;;19.13;;
84982;SDS011;75295;45.426;9.696;2024-02-14T13:52:36;32.55;;;21.08;;
84982;SDS011;75295;45.426;9.696;2024-02-14T13:55:03;25.70;;;18.88;;
84982;SDS011;75295;45.426;9.696;2024-02-14T13:57:37;30.17;;;18.80;;
84982;SDS011;75295;45.426;9.696;2024-02-14T14:00:08;25.73;;;19.30;;
84982;SDS011;75295;45.426;9.696;2024-02-14T14:02:40;28.98;;;19.38;;
84982;SDS011;75295;45.426;9.696;2024-02-14T14:05:10;25.25;;;19.40;;
84982;SDS011;75295;45.426;9.696;2024-02-14T14:07:38;23.33;;;17.85;;
84982;SDS011;75295;45.426;9.696;2024-02-14T14:10:06;26.60;;;18.88;;
84982;SDS011;75295;45.426;9.696;2024-02-14T14:12:37;28.58;;;19.85;;
84982;SDS011;75295;45.426;9.696;2024-02-14T14:15:04;28.25;;;18.95;;
84982;SDS011;75295;45.426;9.696;2024-02-14T14:17:33;26.80;;;19.50;;
84982;SDS011;75295;45.426;9.696;2024-02-14T14:20:00;23.73;;;18.25;;
84982;SDS011;75295;45.426;9.696;2024-02-14T14:22:27;25.55;;;18.33;;
84982;SDS011;75295;45.426;9.696;2024-02-14T14:24:55;30.13;;;20.10;;
84982;SDS011;75295;45.426;9.696;2024-02-14T14:27:23;27.95;;;19.23;;
84982;SDS011;75295;45.426;9.696;2024-02-14T14:29:50;25.35;;;18.23;;
84982;SDS011;75295;45.426;9.696;2024-02-14T14:32:16;30.20;;;18.20;;
84982;SDS011;75295;45.426;9.696;2024-02-14T14:34:44;25.25;;;16.58;;
84982;SDS011;75295;45.426;9.696;2024-02-14T14:37:11;24.63;;;17.38;;
84982;SDS011;75295;45.426;9.696;2024-02-14T14:39:38;25.17;;;18.00;;